sensor_id;sensor_type;location;lat;lon;timestamp;pressure;altitude;pressure_sealevel;temperature;humidity
75646;BME280;64237;52.438;13.240;2022-12-20T00:02:06;101434.47;;;3.65;86.66
75646;BME280;64237;52.438;13.240;2022-12-20T00:04:31;101428.03;;;3.58;88.18
75646;BME280;64237;52.438;13.240;2022-12-20T00:06:56;101425.31;;;3.50;89.09
75646;BME280;64237;52.438;13.240;2022-12-20T00:09:22;101428.38;;;3.55;88.64
75646;BME280;64237;52.438;13.240;2022-12-20T00:11:49;101415.38;;;3.57;88.71
75646;BME280;64237;52.438;13.240;2022-12-20T00:14:15;101414.75;;;3.47;89.09
75646;BME280;64237;52.438;13.240;2022-12-20T00:16:40;101421.19;;;3.54;89.22
75646;BME280;64237;52.438;13.240;2022-12-20T00:19:06;101419.81;;;3.58;89.51
75646;BME280;64237;52.438;13.240;2022-12-20T00:21:33;101422.53;;;3.58;89.73
75646;BME280;64237;52.438;13.240;2022-12-20T00:23:59;101425.59;;;3.63;88.20
75646;BME280;64237;52.438;13.240;2022-12-20T00:26:27;101415.00;;;3.60;87.12
75646;BME280;64237;52.438;13.240;2022-12-20T00:28:53;101397.94;;;3.58;87.27
75646;BME280;64237;52.438;13.240;2022-12-20T00:31:20;101392.09;;;3.61;87.23
75646;BME280;64237;52.438;13.240;2022-12-20T00:33:48;101385.09;;;3.58;89.34
75646;BME280;64237;52.438;13.240;2022-12-20T00:36:14;101386.63;;;3.61;88.22
75646;BME280;64237;52.438;13.240;2022-12-20T00:38:39;101406.84;;;3.52;88.20
75646;BME280;64237;52.438;13.240;2022-12-20T00:41:08;101406.13;;;3.58;89.03
75646;BME280;64237;52.438;13.240;2022-12-20T00:43:35;101389.72;;;3.58;86.65
75646;BME280;64237;52.438;13.240;2022-12-20T00:46:01;101396.41;;;3.55;88.39
75646;BME280;64237;52.438;13.240;2022-12-20T00:48:27;101401.03;;;3.55;87.17
75646;BME280;64237;52.438;13.240;2022-12-20T00:51:01;101404.06;;;3.60;87.28
75646;BME280;64237;52.438;13.240;2022-12-20T00:53:27;101392.78;;;3.63;87.57
75646;BME280;64237;52.438;13.240;2022-12-20T00:55:53;101394.84;;;3.61;87.71
75646;BME280;64237;52.438;13.240;2022-12-20T00:58:19;101403.09;;;3.53;87.91
75646;BME280;64237;52.438;13.240;2022-12-20T01:00:45;101400.34;;;3.53;87.71
75646;BME280;64237;52.438;13.240;2022-12-20T01:03:10;101393.50;;;3.57;89.20
75646;BME280;64237;52.438;13.240;2022-12-20T01:05:36;101389.47;;;3.44;88.99
75646;BME280;64237;52.438;13.240;2022-12-20T01:08:02;101386.81;;;3.59;87.63
75646;BME280;64237;52.438;13.240;2022-12-20T01:10:28;101392.81;;;3.55;86.83
75646;BME280;64237;52.438;13.240;2022-12-20T01:12:53;101387.34;;;3.55;88.20
75646;BME280;64237;52.438;13.240;2022-12-20T01:15:19;101395.19;;;3.58;87.96
75646;BME280;64237;52.438;13.240;2022-12-20T01:17:45;101392.16;;;3.53;87.95
75646;BME280;64237;52.438;13.240;2022-12-20T01:20:10;101401.38;;;3.52;87.34
75646;BME280;64237;52.438;13.240;2022-12-20T01:22:36;101397.94;;;3.58;89.81
75646;BME280;64237;52.438;13.240;2022-12-20T01:25:01;101387.66;;;3.60;89.12
75646;BME280;64237;52.438;13.240;2022-12-20T01:27:27;101400.66;;;3.58;87.43
75646;BME280;64237;52.438;13.240;2022-12-20T01:29:53;101397.22;;;3.64;89.50
75646;BME280;64237;52.438;13.240;2022-12-20T01:32:18;101387.97;;;3.65;88.74
75646;BME280;64237;52.438;13.240;2022-12-20T01:34:44;101395.69;;;3.61;89.38
75646;BME280;64237;52.438;13.240;2022-12-20T01:37:09;101388.16;;;3.63;87.79
75646;BME280;64237;52.438;13.240;2022-12-20T01:39:35;101379.28;;;3.61;86.87
75646;BME280;64237;52.438;13.240;2022-12-20T01:42:00;101380.84;;;3.56;89.45
75646;BME280;64237;52.438;13.240;2022-12-20T01:46:54;101382.31;;;3.43;88.47
75646;BME280;64237;52.438;13.240;2022-12-20T01:49:37;101375.81;;;3.44;88.20
75646;BME280;64237;52.438;13.240;2022-12-20T01:54:35;101384.00;;;3.44;89.61
75646;BME280;64237;52.438;13.240;2022-12-20T01:57:06;101378.53;;;3.44;89.33
75646;BME280;64237;52.438;13.240;2022-12-20T01:59:35;101380.84;;;3.56;89.39
75646;BME280;64237;52.438;13.240;2022-12-20T02:02:03;101371.47;;;3.50;89.38
75646;BME280;64237;52.438;13.240;2022-12-20T02:04:29;101368.91;;;3.49;88.27
75646;BME280;64237;52.438;13.240;2022-12-20T02:06:54;101356.91;;;3.58;87.61
75646;BME280;64237;52.438;13.240;2022-12-20T02:09:20;101372.31;;;3.51;88.26
75646;BME280;64237;52.438;13.240;2022-12-20T02:11:54;101366.50;;;3.54;88.35
75646;BME280;64237;52.438;13.240;2022-12-20T02:14:39;101376.44;;;3.47;87.75
75646;BME280;64237;52.438;13.240;2022-12-20T02:22:51;101373.31;;;3.58;88.50
75646;BME280;64237;52.438;13.240;2022-12-20T02:31:12;101365.22;;;3.64;86.78
75646;BME280;64237;52.438;13.240;2022-12-20T02:33:42;101366.75;;;3.67;88.41
75646;BME280;64237;52.438;13.240;2022-12-20T02:36:13;101371.38;;;3.66;87.37
75646;BME280;64237;52.438;13.240;2022-12-20T02:38:40;101361.75;;;3.70;87.01
75646;BME280;64237;52.438;13.240;2022-12-20T02:41:22;101343.38;;;3.79;87.32
75646;BME280;64237;52.438;13.240;2022-12-20T02:43:57;101342.03;;;3.75;86.83
75646;BME280;64237;52.438;13.240;2022-12-20T02:46:44;101336.34;;;3.85;86.75
75646;BME280;64237;52.438;13.240;2022-12-20T02:49:14;101340.19;;;3.90;87.95
75646;BME280;64237;52.438;13.240;2022-12-20T02:51:43;101336.69;;;3.82;88.33
75646;BME280;64237;52.438;13.240;2022-12-20T02:54:10;101334.25;;;3.87;85.89
75646;BME280;64237;52.438;13.240;2022-12-20T02:56:41;101327.56;;;3.89;85.83
75646;BME280;64237;52.438;13.240;2022-12-20T02:59:15;101326.44;;;3.98;86.69
75646;BME280;64237;52.438;13.240;2022-12-20T03:01:48;101314.06;;;3.88;87.84
75646;BME280;64237;52.438;13.240;2022-12-20T03:04:16;101307.63;;;3.81;87.30
75646;BME280;64237;52.438;13.240;2022-12-20T03:07:05;101314.53;;;3.91;87.32
75646;BME280;64237;52.438;13.240;2022-12-20T03:09:33;101315.66;;;3.82;87.04
75646;BME280;64237;52.438;13.240;2022-12-20T03:11:59;101323.78;;;3.90;87.45
75646;BME280;64237;52.438;13.240;2022-12-20T03:14:25;101332.66;;;3.92;86.50
75646;BME280;64237;52.438;13.240;2022-12-20T03:16:51;101317.56;;;3.96;86.88
75646;BME280;64237;52.438;13.240;2022-12-20T03:19:17;101312.09;;;3.96;87.43
75646;BME280;64237;52.438;13.240;2022-12-20T03:21:42;101296.03;;;3.93;85.80
75646;BME280;64237;52.438;13.240;2022-12-20T03:24:08;101312.09;;;3.96;85.77
75646;BME280;64237;52.438;13.240;2022-12-20T03:26:35;101326.06;;;4.01;86.20
75646;BME280;64237;52.438;13.240;2022-12-20T03:29:00;101318.41;;;4.11;85.03
75646;BME280;64237;52.438;13.240;2022-12-20T03:31:26;101317.00;;;4.16;85.49
75646;BME280;64237;52.438;13.240;2022-12-20T03:33:51;101312.31;;;4.09;86.11
75646;BME280;64237;52.438;13.240;2022-12-20T03:36:16;101330.50;;;4.02;86.92
75646;BME280;64237;52.438;13.240;2022-12-20T03:38:53;101328.75;;;4.09;86.25
75646;BME280;64237;52.438;13.240;2022-12-20T03:41:31;101329.00;;;4.14;85.62
75646;BME280;64237;52.438;13.240;2022-12-20T03:43:59;101340.63;;;4.17;86.73
75646;BME280;64237;52.438;13.240;2022-12-20T03:46:27;101334.84;;;4.11;86.22
75646;BME280;64237;52.438;13.240;2022-12-20T03:48:53;101323.53;;;4.14;87.32
75646;BME280;64237;52.438;13.240;2022-12-20T03:51:18;101316.28;;;4.22;84.16
75646;BME280;64237;52.438;13.240;2022-12-20T03:53:43;101311.75;;;4.29;85.01
75646;BME280;64237;52.438;13.240;2022-12-20T03:56:09;101307.50;;;4.26;84.86
75646;BME280;64237;52.438;13.240;2022-12-20T03:58:34;101317.59;;;4.26;83.95
75646;BME280;64237;52.438;13.240;2022-12-20T04:01:00;101320.78;;;4.14;86.29
75646;BME280;64237;52.438;13.240;2022-12-20T04:03:25;101319.09;;;4.13;85.50
75646;BME280;64237;52.438;13.240;2022-12-20T04:05:50;101322.22;;;4.10;86.23
75646;BME280;64237;52.438;13.240;2022-12-20T04:08:16;101321.94;;;4.05;86.11
75646;BME280;64237;52.438;13.240;2022-12-20T04:10:41;101334.78;;;4.20;85.28
75646;BME280;64237;52.438;13.240;2022-12-20T04:13:25;101328.34;;;4.12;87.19
75646;BME280;64237;52.438;13.240;2022-12-20T04:15:50;101321.16;;;4.11;85.19
75646;BME280;64237;52.438;13.240;2022-12-20T04:18:16;101322.97;;;4.19;84.72
75646;BME280;64237;52.438;13.240;2022-12-20T04:20:41;101301.63;;;4.14;85.42
75646;BME280;64237;52.438;13.240;2022-12-20T04:23:06;101288.22;;;4.05;84.86
75646;BME280;64237;52.438;13.240;2022-12-20T04:25:32;101314.00;;;4.10;84.36
75646;BME280;64237;52.438;13.240;2022-12-20T04:27:57;101312.75;;;4.13;85.46
75646;BME280;64237;52.438;13.240;2022-12-20T04:30:22;101310.31;;;4.03;86.72
75646;BME280;64237;52.438;13.240;2022-12-20T04:32:48;101301.88;;;3.90;85.74
75646;BME280;64237;52.438;13.240;2022-12-20T04:35:13;101299.34;;;3.89;85.58
75646;BME280;64237;52.438;13.240;2022-12-20T04:37:38;101298.09;;;3.91;84.99
75646;BME280;64237;52.438;13.240;2022-12-20T04:40:04;101307.81;;;3.79;86.04
75646;BME280;64237;52.438;13.240;2022-12-20T04:42:30;101294.13;;;3.79;86.31
75646;BME280;64237;52.438;13.240;2022-12-20T04:44:55;101296.41;;;3.90;85.83
75646;BME280;64237;52.438;13.240;2022-12-20T04:47:21;101286.59;;;3.81;86.30
75646;BME280;64237;52.438;13.240;2022-12-20T04:49:46;101290.84;;;3.84;85.93
75646;BME280;64237;52.438;13.240;2022-12-20T04:52:12;101297.06;;;3.77;87.37
75646;BME280;64237;52.438;13.240;2022-12-20T04:54:56;101297.91;;;3.78;86.77
75646;BME280;64237;52.438;13.240;2022-12-20T04:57:21;101306.16;;;3.70;87.59
75646;BME280;64237;52.438;13.240;2022-12-20T04:59:46;101294.38;;;3.69;86.99
75646;BME280;64237;52.438;13.240;2022-12-20T05:02:12;101295.91;;;3.72;85.73
75646;BME280;64237;52.438;13.240;2022-12-20T05:04:37;101292.78;;;3.75;85.48
75646;BME280;64237;52.438;13.240;2022-12-20T05:07:02;101289.50;;;3.65;87.19
75646;BME280;64237;52.438;13.240;2022-12-20T05:09:28;101309.00;;;3.62;86.63
75646;BME280;64237;52.438;13.240;2022-12-20T05:11:53;101295.13;;;3.63;86.57
75646;BME280;64237;52.438;13.240;2022-12-20T05:14:18;101303.16;;;3.65;87.92
75646;BME280;64237;52.438;13.240;2022-12-20T05:16:44;101305.28;;;3.55;87.44
75646;BME280;64237;52.438;13.240;2022-12-20T05:19:09;101307.66;;;3.58;88.08
75646;BME280;64237;52.438;13.240;2022-12-20T05:21:34;101296.34;;;3.61;86.76
75646;BME280;64237;52.438;13.240;2022-12-20T05:24:18;101284.69;;;3.67;87.27
75646;BME280;64237;52.438;13.240;2022-12-20T05:27:02;101279.78;;;3.77;86.07
75646;BME280;64237;52.438;13.240;2022-12-20T05:29:28;101271.88;;;3.82;87.27
75646;BME280;64237;52.438;13.240;2022-12-20T05:31:53;101275.28;;;3.84;86.90
75646;BME280;64237;52.438;13.240;2022-12-20T05:34:19;101275.16;;;3.92;85.41
75646;BME280;64237;52.438;13.240;2022-12-20T05:36:44;101278.88;;;3.99;86.35
75646;BME280;64237;52.438;13.240;2022-12-20T05:39:10;101275.84;;;3.94;87.03
75646;BME280;64237;52.438;13.240;2022-12-20T05:41:38;101267.19;;;4.05;86.74
75646;BME280;64237;52.438;13.240;2022-12-20T05:44:05;101269.72;;;4.07;86.26
75646;BME280;64237;52.438;13.240;2022-12-20T05:46:30;101260.84;;;4.05;86.86
75646;BME280;64237;52.438;13.240;2022-12-20T05:48:56;101262.56;;;4.06;85.54
75646;BME280;64237;52.438;13.240;2022-12-20T05:51:21;101268.78;;;4.14;86.45
75646;BME280;64237;52.438;13.240;2022-12-20T05:53:46;101273.59;;;4.12;86.33
75646;BME280;64237;52.438;13.240;2022-12-20T05:56:12;101268.69;;;4.23;86.14
75646;BME280;64237;52.438;13.240;2022-12-20T05:58:37;101252.63;;;4.20;84.89
75646;BME280;64237;52.438;13.240;2022-12-20T06:01:05;101260.56;;;4.29;86.73
75646;BME280;64237;52.438;13.240;2022-12-20T06:03:31;101255.56;;;4.33;84.95
75646;BME280;64237;52.438;13.240;2022-12-20T06:05:56;101267.56;;;4.32;85.66
75646;BME280;64237;52.438;13.240;2022-12-20T06:08:21;101280.38;;;4.46;84.20
75646;BME280;64237;52.438;13.240;2022-12-20T06:10:47;101270.09;;;4.33;85.96
75646;BME280;64237;52.438;13.240;2022-12-20T06:13:13;101278.13;;;4.35;86.00
75646;BME280;64237;52.438;13.240;2022-12-20T06:15:39;101282.00;;;4.26;87.31
75646;BME280;64237;52.438;13.240;2022-12-20T06:18:05;101287.97;;;4.29;87.95
75646;BME280;64237;52.438;13.240;2022-12-20T06:20:30;101291.06;;;4.26;88.21
75646;BME280;64237;52.438;13.240;2022-12-20T06:22:56;101299.75;;;4.30;88.33
75646;BME280;64237;52.438;13.240;2022-12-20T06:25:22;101296.56;;;4.26;88.85
75646;BME280;64237;52.438;13.240;2022-12-20T06:27:47;101285.13;;;4.23;88.76
75646;BME280;64237;52.438;13.240;2022-12-20T06:30:13;101280.50;;;4.23;89.63
75646;BME280;64237;52.438;13.240;2022-12-20T06:32:38;101277.56;;;4.25;89.33
75646;BME280;64237;52.438;13.240;2022-12-20T06:35:04;101275.13;;;4.30;89.78
75646;BME280;64237;52.438;13.240;2022-12-20T06:37:30;101265.47;;;4.34;89.43
75646;BME280;64237;52.438;13.240;2022-12-20T06:39:56;101274.75;;;4.33;90.04
75646;BME280;64237;52.438;13.240;2022-12-20T06:42:22;101287.38;;;4.34;89.59
75646;BME280;64237;52.438;13.240;2022-12-20T06:44:48;101287.00;;;4.37;89.35
75646;BME280;64237;52.438;13.240;2022-12-20T06:47:13;101291.72;;;4.43;89.62
75646;BME280;64237;52.438;13.240;2022-12-20T06:49:39;101300.50;;;4.38;89.14
75646;BME280;64237;52.438;13.240;2022-12-20T06:52:04;101298.31;;;4.34;89.87
75646;BME280;64237;52.438;13.240;2022-12-20T06:54:29;101296.25;;;4.36;90.43
75646;BME280;64237;52.438;13.240;2022-12-20T06:56:55;101296.53;;;4.41;89.50
75646;BME280;64237;52.438;13.240;2022-12-20T06:59:20;101292.56;;;4.43;89.86
75646;BME280;64237;52.438;13.240;2022-12-20T07:01:45;101290.97;;;4.49;89.74
75646;BME280;64237;52.438;13.240;2022-12-20T07:04:11;101282.38;;;4.52;90.11
75646;BME280;64237;52.438;13.240;2022-12-20T07:06:36;101293.34;;;4.52;88.99
75646;BME280;64237;52.438;13.240;2022-12-20T07:09:02;101291.34;;;4.46;89.74
75646;BME280;64237;52.438;13.240;2022-12-20T07:11:27;101297.78;;;4.53;89.34
75646;BME280;64237;52.438;13.240;2022-12-20T07:13:55;101300.41;;;4.46;89.49
75646;BME280;64237;52.438;13.240;2022-12-20T07:16:21;101295.59;;;4.48;89.81
75646;BME280;64237;52.438;13.240;2022-12-20T07:18:50;101299.00;;;4.51;89.14
75646;BME280;64237;52.438;13.240;2022-12-20T07:21:16;101289.28;;;4.48;89.75
75646;BME280;64237;52.438;13.240;2022-12-20T07:23:43;101307.78;;;4.46;90.02
75646;BME280;64237;52.438;13.240;2022-12-20T07:26:08;101312.88;;;4.49;90.35
75646;BME280;64237;52.438;13.240;2022-12-20T07:28:35;101317.69;;;4.47;89.88
75646;BME280;64237;52.438;13.240;2022-12-20T07:31:01;101314.97;;;4.47;90.28
75646;BME280;64237;52.438;13.240;2022-12-20T07:33:27;101305.34;;;4.51;90.23
75646;BME280;64237;52.438;13.240;2022-12-20T07:35:59;101305.59;;;4.56;90.49
75646;BME280;64237;52.438;13.240;2022-12-20T07:38:25;101311.81;;;4.65;90.42
75646;BME280;64237;52.438;13.240;2022-12-20T07:40:50;101311.34;;;4.76;90.93
75646;BME280;64237;52.438;13.240;2022-12-20T07:43:16;101307.00;;;4.67;90.75
75646;BME280;64237;52.438;13.240;2022-12-20T07:45:41;101303.31;;;4.60;90.80
75646;BME280;64237;52.438;13.240;2022-12-20T07:48:07;101326.00;;;4.68;91.20
75646;BME280;64237;52.438;13.240;2022-12-20T07:50:33;101331.34;;;4.76;90.71
75646;BME280;64237;52.438;13.240;2022-12-20T07:53:01;101326.47;;;4.72;90.93
75646;BME280;64237;52.438;13.240;2022-12-20T07:55:29;101318.72;;;4.75;91.18
75646;BME280;64237;52.438;13.240;2022-12-20T07:57:59;101314.53;;;4.79;91.01
75646;BME280;64237;52.438;13.240;2022-12-20T08:00:26;101309.53;;;4.83;91.50
75646;BME280;64237;52.438;13.240;2022-12-20T08:03:13;101315.84;;;4.83;90.58
75646;BME280;64237;52.438;13.240;2022-12-20T08:05:42;101314.53;;;4.79;90.93
75646;BME280;64237;52.438;13.240;2022-12-20T08:08:10;101322.56;;;4.81;91.10
75646;BME280;64237;52.438;13.240;2022-12-20T08:10:36;101311.53;;;4.74;91.44
75646;BME280;64237;52.438;13.240;2022-12-20T08:13:03;101331.94;;;4.87;90.87
75646;BME280;64237;52.438;13.240;2022-12-20T08:15:29;101331.94;;;4.87;90.95
75646;BME280;64237;52.438;13.240;2022-12-20T08:17:54;101332.69;;;4.95;91.42
75646;BME280;64237;52.438;13.240;2022-12-20T08:20:20;101316.81;;;4.91;91.06
75646;BME280;64237;52.438;13.240;2022-12-20T08:22:45;101310.94;;;4.94;91.42
75646;BME280;64237;52.438;13.240;2022-12-20T08:25:11;101319.03;;;5.02;91.21
75646;BME280;64237;52.438;13.240;2022-12-20T08:27:36;101313.53;;;5.02;91.14
75646;BME280;64237;52.438;13.240;2022-12-20T08:30:03;101318.56;;;4.98;91.10
75646;BME280;64237;52.438;13.240;2022-12-20T08:32:29;101312.31;;;5.04;91.32
75646;BME280;64237;52.438;13.240;2022-12-20T08:34:54;101301.53;;;5.03;91.39
75646;BME280;64237;52.438;13.240;2022-12-20T08:37:19;101280.25;;;5.05;91.17
75646;BME280;64237;52.438;13.240;2022-12-20T08:39:45;101288.38;;;5.13;91.04
75646;BME280;64237;52.438;13.240;2022-12-20T08:42:12;101293.88;;;5.13;91.18
75646;BME280;64237;52.438;13.240;2022-12-20T08:44:37;101301.16;;;5.06;91.33
75646;BME280;64237;52.438;13.240;2022-12-20T08:47:02;101309.84;;;5.09;91.43
75646;BME280;64237;52.438;13.240;2022-12-20T08:49:28;101306.53;;;5.14;91.44
75646;BME280;64237;52.438;13.240;2022-12-20T08:51:53;101307.84;;;5.18;91.26
75646;BME280;64237;52.438;13.240;2022-12-20T08:54:19;101307.84;;;5.18;91.50
75646;BME280;64237;52.438;13.240;2022-12-20T08:56:44;101300.25;;;5.20;91.26
75646;BME280;64237;52.438;13.240;2022-12-20T08:59:09;101298.16;;;5.22;91.48
75646;BME280;64237;52.438;13.240;2022-12-20T09:01:35;101300.41;;;5.33;91.53
75646;BME280;64237;52.438;13.240;2022-12-20T09:04:00;101290.28;;;5.34;90.93
75646;BME280;64237;52.438;13.240;2022-12-20T09:06:26;101297.38;;;5.28;91.01
75646;BME280;64237;52.438;13.240;2022-12-20T09:08:51;101300.41;;;5.33;91.02
75646;BME280;64237;52.438;13.240;2022-12-20T09:11:20;101286.53;;;5.41;90.56
75646;BME280;64237;52.438;13.240;2022-12-20T09:13:47;101294.38;;;5.44;90.59
75646;BME280;64237;52.438;13.240;2022-12-20T09:16:16;101290.59;;;5.45;91.41
75646;BME280;64237;52.438;13.240;2022-12-20T09:18:42;101291.31;;;5.54;90.77
75646;BME280;64237;52.438;13.240;2022-12-20T09:21:08;101291.38;;;5.61;90.79
75646;BME280;64237;52.438;13.240;2022-12-20T09:23:35;101278.94;;;5.65;90.98
75646;BME280;64237;52.438;13.240;2022-12-20T09:26:06;101286.66;;;5.76;89.99
75646;BME280;64237;52.438;13.240;2022-12-20T09:28:32;101286.53;;;5.84;89.66
75646;BME280;64237;52.438;13.240;2022-12-20T09:30:59;101281.81;;;5.78;89.72
75646;BME280;64237;52.438;13.240;2022-12-20T09:33:25;101285.06;;;5.88;89.63
75646;BME280;64237;52.438;13.240;2022-12-20T09:35:50;101283.25;;;5.95;89.98
75646;BME280;64237;52.438;13.240;2022-12-20T09:38:16;101295.13;;;6.02;89.95
75646;BME280;64237;52.438;13.240;2022-12-20T09:40:46;101284.63;;;6.12;89.36
75646;BME280;64237;52.438;13.240;2022-12-20T09:43:14;101284.63;;;6.12;90.41
75646;BME280;64237;52.438;13.240;2022-12-20T09:45:40;101281.88;;;6.12;89.23
75646;BME280;64237;52.438;13.240;2022-12-20T09:48:12;101281.34;;;6.24;89.78
75646;BME280;64237;52.438;13.240;2022-12-20T09:56:27;101286.38;;;6.20;88.56
75646;BME280;64237;52.438;13.240;2022-12-20T09:59:06;101283.69;;;6.27;88.92
75646;BME280;64237;52.438;13.240;2022-12-20T10:01:35;101278.41;;;6.32;89.15
75646;BME280;64237;52.438;13.240;2022-12-20T10:04:05;101277.75;;;6.23;89.71
75646;BME280;64237;52.438;13.240;2022-12-20T10:06:59;101279.47;;;6.31;88.71
75646;BME280;64237;52.438;13.240;2022-12-20T10:09:42;101285.13;;;6.23;88.44
75646;BME280;64237;52.438;13.240;2022-12-20T10:15:17;101283.44;;;6.28;88.32
75646;BME280;64237;52.438;13.240;2022-12-20T10:17:49;101287.69;;;6.31;87.29
75646;BME280;64237;52.438;13.240;2022-12-20T10:20:29;101281.81;;;6.34;88.66
75646;BME280;64237;52.438;13.240;2022-12-20T10:23:02;101276.31;;;6.34;88.00
75646;BME280;64237;52.438;13.240;2022-12-20T10:25:32;101269.81;;;6.41;86.77
75646;BME280;64237;52.438;13.240;2022-12-20T10:28:01;101260.31;;;6.44;88.10
75646;BME280;64237;52.438;13.240;2022-12-20T10:30:27;101255.06;;;6.49;88.81
75646;BME280;64237;52.438;13.240;2022-12-20T10:32:56;101244.75;;;6.64;87.76
75646;BME280;64237;52.438;13.240;2022-12-20T10:38:01;101232.94;;;6.70;87.15
75646;BME280;64237;52.438;13.240;2022-12-20T10:40:39;101223.22;;;6.74;87.47
75646;BME280;64237;52.438;13.240;2022-12-20T10:43:05;101212.03;;;6.82;87.24
75646;BME280;64237;52.438;13.240;2022-12-20T10:45:39;101227.47;;;6.83;88.35
75646;BME280;64237;52.438;13.240;2022-12-20T10:48:28;101210.16;;;6.90;86.70
75646;BME280;64237;52.438;13.240;2022-12-20T10:51:18;101212.50;;;6.93;87.04
75646;BME280;64237;52.438;13.240;2022-12-20T10:53:56;101204.25;;;6.99;87.26
75646;BME280;64237;52.438;13.240;2022-12-20T10:56:33;101189.88;;;7.04;86.19
75646;BME280;64237;52.438;13.240;2022-12-20T11:01:46;101187.75;;;7.06;85.85
75646;BME280;64237;52.438;13.240;2022-12-20T11:04:33;101183.09;;;7.00;86.79
75646;BME280;64237;52.438;13.240;2022-12-20T11:07:01;101184.78;;;7.01;86.41
75646;BME280;64237;52.438;13.240;2022-12-20T11:09:35;101161.94;;;7.00;85.25
75646;BME280;64237;52.438;13.240;2022-12-20T11:12:11;101166.59;;;7.00;85.67
75646;BME280;64237;52.438;13.240;2022-12-20T11:14:37;101153.47;;;7.02;86.19
75646;BME280;64237;52.438;13.240;2022-12-20T11:17:06;101160.47;;;7.04;85.15
75646;BME280;64237;52.438;13.240;2022-12-20T11:31:38;101142.91;;;7.12;84.68
75646;BME280;64237;52.438;13.240;2022-12-20T11:34:00;101141.63;;;7.21;83.84
75646;BME280;64237;52.438;13.240;2022-12-20T11:39:15;101127.47;;;7.31;83.11
75646;BME280;64237;52.438;13.240;2022-12-20T11:41:49;101119.63;;;7.34;85.35
75646;BME280;64237;52.438;13.240;2022-12-20T11:54:46;101125.31;;;7.19;84.29
75646;BME280;64237;52.438;13.240;2022-12-20T11:57:26;101123.41;;;7.20;84.07
75646;BME280;64237;52.438;13.240;2022-12-20T11:59:59;101133.16;;;7.29;83.34
75646;BME280;64237;52.438;13.240;2022-12-20T12:05:00;101117.28;;;7.51;82.86
75646;BME280;64237;52.438;13.240;2022-12-20T12:07:32;101116.63;;;7.55;82.67
75646;BME280;64237;52.438;13.240;2022-12-20T12:12:36;101115.78;;;7.48;85.06
75646;BME280;64237;52.438;13.240;2022-12-20T12:17:59;101105.41;;;7.44;83.32
75646;BME280;64237;52.438;13.240;2022-12-20T12:25:42;101095.03;;;7.39;84.97
75646;BME280;64237;52.438;13.240;2022-12-20T12:28:11;101090.81;;;7.37;84.64
75646;BME280;64237;52.438;13.240;2022-12-20T12:30:38;101094.19;;;7.45;83.75
75646;BME280;64237;52.438;13.240;2022-12-20T12:33:13;101087.84;;;7.51;83.13
75646;BME280;64237;52.438;13.240;2022-12-20T12:39:07;101080.22;;;7.53;82.97
75646;BME280;64237;52.438;13.240;2022-12-20T12:44:23;101065.38;;;7.54;83.32
75646;BME280;64237;52.438;13.240;2022-12-20T12:46:58;101057.75;;;7.56;82.25
75646;BME280;64237;52.438;13.240;2022-12-20T12:49:27;101062.84;;;7.46;83.60
75646;BME280;64237;52.438;13.240;2022-12-20T12:51:58;101058.81;;;7.55;82.65
75646;BME280;64237;52.438;13.240;2022-12-20T12:54:28;101053.75;;;7.52;82.68
75646;BME280;64237;52.438;13.240;2022-12-20T12:57:00;101048.44;;;7.57;83.29
75646;BME280;64237;52.438;13.240;2022-12-20T13:09:54;101058.84;;;7.42;82.05
75646;BME280;64237;52.438;13.240;2022-12-20T13:15:01;101058.19;;;7.40;81.71
75646;BME280;64237;52.438;13.240;2022-12-20T13:19:54;101053.56;;;7.34;83.55
75646;BME280;64237;52.438;13.240;2022-12-20T13:22:21;101057.97;;;7.48;81.10
75646;BME280;64237;52.438;13.240;2022-12-20T13:25:00;101055.66;;;7.39;82.42
75646;BME280;64237;52.438;13.240;2022-12-20T13:27:38;101062.84;;;7.40;80.66
75646;BME280;64237;52.438;13.240;2022-12-20T13:37:59;101060.78;;;7.35;81.17
75646;BME280;64237;52.438;13.240;2022-12-20T13:40:47;101050.81;;;7.28;80.39
75646;BME280;64237;52.438;13.240;2022-12-20T13:45:50;101047.03;;;7.22;80.85
75646;BME280;64237;52.438;13.240;2022-12-20T13:49:00;101045.97;;;7.23;80.29
75646;BME280;64237;52.438;13.240;2022-12-20T13:51:25;101048.75;;;7.10;81.32
75646;BME280;64237;52.438;13.240;2022-12-20T13:54:05;101043.84;;;7.18;80.43
75646;BME280;64237;52.438;13.240;2022-12-20T13:56:37;101052.75;;;7.14;81.46
75646;BME280;64237;52.438;13.240;2022-12-20T13:59:13;101052.56;;;7.09;81.64
75646;BME280;64237;52.438;13.240;2022-12-20T14:01:52;101045.16;;;7.09;80.74
75646;BME280;64237;52.438;13.240;2022-12-20T14:04:18;101048.75;;;7.10;80.07
75646;BME280;64237;52.438;13.240;2022-12-20T14:06:50;101051.50;;;7.10;80.77
75646;BME280;64237;52.438;13.240;2022-12-20T14:09:47;101039.41;;;6.98;81.09
75646;BME280;64237;52.438;13.240;2022-12-20T14:12:19;101041.75;;;7.01;80.88
75646;BME280;64237;52.438;13.240;2022-12-20T14:14:46;101046.63;;;6.99;82.30
75646;BME280;64237;52.438;13.240;2022-12-20T14:17:28;101032.88;;;6.99;80.25
75646;BME280;64237;52.438;13.240;2022-12-20T14:20:18;101030.31;;;6.97;81.55
75646;BME280;64237;52.438;13.240;2022-12-20T14:23:10;101036.69;;;7.04;79.57
75646;BME280;64237;52.438;13.240;2022-12-20T14:28:20;101031.19;;;6.91;81.04
75646;BME280;64237;52.438;13.240;2022-12-20T14:30:49;101019.78;;;6.87;80.69
75646;BME280;64237;52.438;13.240;2022-12-20T14:33:28;101021.03;;;6.92;80.11
75646;BME280;64237;52.438;13.240;2022-12-20T14:35:54;101021.88;;;6.85;79.06
75646;BME280;64237;52.438;13.240;2022-12-20T14:38:22;101012.56;;;6.80;79.91
75646;BME280;64237;52.438;13.240;2022-12-20T14:40:48;101025.28;;;6.87;79.64
75646;BME280;64237;52.438;13.240;2022-12-20T14:43:15;101030.78;;;6.87;79.27